Baxley, Georgia
Current Conditions -  °F | °C
As of 8:35 AM on Sunday 23 Nov 2014 (Local Time) from KBHC Reporting Station
Moderate Rain Moderate Rain  
Wind Chill: 63°   Ceiling: 500
Heat Index: 63°   Visibility: 5mi
Dew Point: 61°   Wind: 3mph
Humidity: 94%   Direction: 50°NE
Pressure: 30.02"   Gusts: NA
Location:  31.76°N, 82.35°W
Report Text: KBHC 231335Z AUTO 05003KT 5SM RA OVC005 17/16 A3002 RMK AO2
Loading
Personal Weather Stations






























Interactive Weather Map New forecast layout! Learn more

10-Day Weather Forecast

Advertisements
Track Severe Weather on mobile